Amf Ohare, Illinois
Current Conditions -  °F | °C
As of 2:51 AM on Thursday 27 Nov 2014 (Local Time) from KORD Reporting Station
Overcast Overcast  
Wind Chill: 11°   Ceiling: 4500
Heat Index: 24°   Visibility: 7mi
Dew Point: 17°   Wind: 16mph
Humidity: 75%   Direction: 330°NNW
Pressure: 30.22"   Gusts: NA
Location:  41.968°N, 87.8912°W
Report Text: KORD 270851Z 33014KT 7SM BKN045 OVC090 M04/M08 A3022 RMK AO2 SLP244 60000 T10441083 53013
Loading
Personal Weather Stations






























Interactive Weather Map New forecast layout! Learn more

10-Day Weather Forecast

Advertisements
Track Severe Weather on mobile